This is the latest recevied weather packets stored in our database for station/object OK1PNK-5. If no packets are shown the sender has not sent any weather packets the latest 10 day(s).
| Time | Temp. | Humidity | Pressure | Rain* | Wind** | Luminosity | Snow |
|---|---|---|---|---|---|---|---|
| 1777370799 | 16.67° C | 35% | 979.2 hPa | 0 mm | - | - | - |
| 1777370199 | 16.67° C | 35% | 979.3 hPa | 0 mm | - | - | - |
| 1777368999 | 13.89° C | 41% | 979.6 hPa | 0 mm | - | - | - |
| 1777368399 | 13.89° C | 41% | 979.6 hPa | 0 mm | - | - | - |
| 1777367799 | 13.89° C | 41% | 979.6 hPa | 0 mm | - | - | - |
| 1777365399 | 13.33° C | 42% | 979.6 hPa | 0 mm | - | - | - |
| 1777364799 | 13.33° C | 44% | 979.5 hPa | 0 mm | - | - | - |
| 1777364199 | 12.22° C | 47% | 979.5 hPa | 0 mm | - | - | - |
| 1777363599 | 12.22° C | 47% | 979.5 hPa | 0 mm | - | - | - |
| 1777362999 | 11.67° C | 47% | 979.3 hPa | 0 mm | - | - | - |
| 1777362399 | 11.11° C | 50% | 979.4 hPa | 0 mm | - | - | - |
| 1777361799 | 9.44° C | 54% | 979.3 hPa | 0 mm | - | - | - |
| 1777361199 | 9.44° C | 54% | 979.3 hPa | 0 mm | - | - | - |
| 1777360599 | 9.44° C | 54% | 979.3 hPa | 0 mm | - | - | - |
| 1777359399 | 9.44° C | 54% | 979.3 hPa | 0 mm | - | - | - |
| 1777358199 | 8.33° C | 56% | 979.4 hPa | 0 mm | - | - | - |
| 1777357599 | 7.78° C | 58% | 979.4 hPa | 0 mm | - | - | - |
| 1777356999 | 7.78° C | 58% | 979.4 hPa | 0 mm | - | - | - |
| 1777356399 | 7.78° C | 58% | 979.4 hPa | 0 mm | - | - | - |
| 1777355799 | 7.22° C | 59% | 979.3 hPa | 0 mm | - | - | - |
| 1777354599 | 5.56° C | 59% | 978.9 hPa | 0 mm | - | - | - |
| 1777353999 | 5.56° C | 59% | 978.9 hPa | 0 mm | - | - | - |
| 1777353399 | 5.56° C | 59% | 978.9 hPa | 0 mm | - | - | - |
| 1777352799 | 5.56° C | 59% | 978.9 hPa | 0 mm | - | - | - |
| 1777352199 | 5.56° C | 59% | 978.9 hPa | 0 mm | - | - | - |
* Rain latest hour (hover to see other rain measurements)
** Current wind speed in m/s (hover to see current wind gust speed)